createdAt,value
2018-12-19T00:02:22.837Z,98501.92
2018-12-19T00:04:51.280Z,98494.31
2018-12-19T00:07:19.759Z,98491.36
2018-12-19T00:09:48.215Z,98487.88
2018-12-19T00:12:16.668Z,98470.03
2018-12-19T00:14:45.140Z,98457.03
2018-12-19T00:17:13.645Z,98448.48
2018-12-19T00:19:42.082Z,98450.16
2018-12-19T00:22:10.535Z,98439.41
2018-12-19T00:24:38.967Z,98439.27
2018-12-19T00:27:07.397Z,98427.37
2018-12-19T00:29:35.851Z,98428.62
2018-12-19T00:32:04.291Z,98419.61
2018-12-19T00:34:32.740Z,98416.25
2018-12-19T00:37:01.193Z,98411.99
2018-12-19T00:39:29.660Z,98403.55
2018-12-19T00:41:58.108Z,98402.00
2018-12-19T00:44:26.571Z,98400.06
2018-12-19T00:46:54.979Z,98398.94
2018-12-19T00:49:23.437Z,98412.53
2018-12-19T00:51:51.858Z,98417.94
2018-12-19T00:54:20.312Z,98417.08
2018-12-19T00:56:48.747Z,98410.33
2018-12-19T00:59:17.189Z,98415.23
2018-12-19T01:01:45.611Z,98393.41
2018-12-19T01:04:14.079Z,98379.08
2018-12-19T01:06:42.524Z,98388.70
2018-12-19T01:09:15.855Z,98411.78
2018-12-19T01:13:10.582Z,98426.47
2018-12-19T01:15:39.047Z,98427.11
2018-12-19T01:18:07.508Z,98418.61
2018-12-19T01:20:35.944Z,98420.10
2018-12-19T01:23:04.412Z,98419.16
2018-12-19T01:25:32.855Z,98430.63
2018-12-19T01:28:01.322Z,98433.54
2018-12-19T01:30:29.757Z,98428.24
2018-12-19T01:32:58.205Z,98434.64
2018-12-19T01:35:26.632Z,98428.86
2018-12-19T01:37:55.083Z,98428.66
2018-12-19T01:40:23.512Z,98431.27
2018-12-19T01:42:51.967Z,98433.23
2018-12-19T01:45:20.392Z,98429.71
2018-12-19T01:47:49.186Z,98436.61
2018-12-19T01:50:17.638Z,98436.64
2018-12-19T01:52:46.090Z,98432.19
2018-12-19T01:55:14.633Z,98433.08
2018-12-19T01:57:43.188Z,98419.61
2018-12-19T02:00:11.591Z,98413.10
2018-12-19T02:02:40.027Z,98402.72
2018-12-19T02:05:08.500Z,98401.95
2018-12-19T02:07:36.934Z,98395.77
2018-12-19T02:10:05.947Z,98406.09
2018-12-19T02:12:34.400Z,98394.47
2018-12-19T02:15:02.902Z,98394.11
2018-12-19T02:17:31.332Z,98397.49
2018-12-19T02:19:59.787Z,98407.69
2018-12-19T02:22:28.216Z,98404.17
2018-12-19T02:24:56.654Z,98404.03
2018-12-19T02:27:25.075Z,98406.80
2018-12-19T02:29:53.655Z,98405.63
2018-12-19T02:32:22.079Z,98403.70
2018-12-19T02:34:50.539Z,98400.94
2018-12-19T02:37:19.001Z,98399.03
2018-12-19T02:39:47.478Z,98395.47
2018-12-19T02:42:15.933Z,98394.84
2018-12-19T02:44:44.413Z,98393.68
2018-12-19T02:47:12.847Z,98392.41
2018-12-19T02:49:41.312Z,98389.80
2018-12-19T02:52:09.755Z,98385.87
2018-12-19T02:54:38.208Z,98390.84
2018-12-19T02:57:06.627Z,98392.14
2018-12-19T02:59:35.094Z,98389.64
2018-12-19T03:02:03.611Z,98384.23
2018-12-19T03:04:32.069Z,98385.39
2018-12-19T03:07:00.522Z,98387.03
2018-12-19T03:09:28.968Z,98392.41
2018-12-19T03:11:57.411Z,98391.25
2018-12-19T03:14:25.900Z,98391.69
2018-12-19T03:16:54.338Z,98393.72
2018-12-19T03:19:22.827Z,98386.48
2018-12-19T03:21:51.252Z,98384.53
2018-12-19T03:24:19.707Z,98378.61
2018-12-19T03:26:48.186Z,98375.85
2018-12-19T03:29:16.656Z,98372.61
2018-12-19T03:31:45.089Z,98370.62
2018-12-19T03:34:13.543Z,98361.94
2018-12-19T03:36:41.992Z,98357.84
2018-12-19T03:39:10.569Z,98357.77
2018-12-19T03:41:38.994Z,98359.41
2018-12-19T03:44:07.455Z,98364.31
2018-12-19T03:46:35.901Z,98365.95
2018-12-19T03:49:04.492Z,98371.83
2018-12-19T03:51:32.903Z,98373.17
2018-12-19T03:54:01.382Z,98371.72
2018-12-19T03:56:29.799Z,98371.68
2018-12-19T03:58:58.271Z,98370.23
2018-12-19T04:01:26.756Z,98364.09
2018-12-19T04:03:55.237Z,98367.08
2018-12-19T04:06:23.644Z,98370.91
2018-12-19T04:08:52.124Z,98380.09
2018-12-19T04:11:20.561Z,98384.53
2018-12-19T04:13:49.037Z,98392.23
2018-12-19T04:16:17.465Z,98400.41
2018-12-19T04:18:45.912Z,98396.92
2018-12-19T04:21:14.339Z,98396.77
2018-12-19T04:23:42.768Z,98392.64
2018-12-19T04:26:11.225Z,98401.53
2018-12-19T04:28:39.663Z,98390.46
2018-12-19T04:31:08.117Z,98399.40
2018-12-19T04:33:36.537Z,98400.09
2018-12-19T04:36:05.543Z,98406.84
2018-12-19T04:38:34.095Z,98408.77
2018-12-19T04:41:02.561Z,98397.00
2018-12-19T04:43:30.983Z,98395.00
2018-12-19T04:45:59.447Z,98405.67
2018-12-19T04:48:27.888Z,98410.76
2018-12-19T04:50:56.337Z,98403.32
2018-12-19T04:53:24.774Z,98400.52
2018-12-19T04:55:53.254Z,98391.16
2018-12-19T04:58:21.748Z,98386.47
2018-12-19T05:00:50.210Z,98386.98
2018-12-19T05:03:18.638Z,98387.63
2018-12-19T05:05:47.100Z,98396.53
2018-12-19T05:08:15.639Z,98407.60
2018-12-19T05:10:44.099Z,98391.16
2018-12-19T05:13:12.639Z,98396.12
2018-12-19T05:15:41.120Z,98392.97
2018-12-19T05:18:09.547Z,98393.70
2018-12-19T05:20:38.000Z,98387.16
2018-12-19T05:23:06.423Z,98396.93
2018-12-19T05:25:34.867Z,98394.53
2018-12-19T05:28:03.294Z,98395.30
2018-12-19T05:30:31.744Z,98398.38
2018-12-19T05:33:00.195Z,98400.16
2018-12-19T05:35:28.663Z,98407.69
2018-12-19T05:37:57.143Z,98404.16
2018-12-19T05:40:25.594Z,98407.75
2018-12-19T05:42:54.028Z,98412.07
2018-12-19T05:45:22.479Z,98407.45
2018-12-19T05:47:51.032Z,98405.09
2018-12-19T05:50:22.015Z,98404.26
2018-12-19T05:52:50.435Z,98407.45
2018-12-19T05:55:18.878Z,98408.33
2018-12-19T05:57:47.299Z,98413.38
2018-12-19T06:00:15.771Z,98404.84
2018-12-19T06:02:44.224Z,98402.41
2018-12-19T06:05:12.673Z,98397.83
2018-12-19T06:07:41.095Z,98394.53
2018-12-19T06:10:09.699Z,98400.37
2018-12-19T06:12:38.131Z,98400.59
2018-12-19T06:15:06.866Z,98400.92
2018-12-19T06:17:35.311Z,98400.63
2018-12-19T06:20:04.368Z,98397.87
2018-12-19T06:22:32.817Z,98400.31
2018-12-19T06:25:01.299Z,98400.53
2018-12-19T06:27:29.756Z,98403.95
2018-12-19T06:31:22.740Z,98401.72
2018-12-19T06:33:51.416Z,98409.24
2018-12-19T06:36:19.862Z,98405.17
2018-12-19T06:38:48.372Z,98397.33
2018-12-19T06:41:17.237Z,98399.27
2018-12-19T06:43:46.559Z,98399.15
2018-12-19T06:46:15.056Z,98409.80
2018-12-19T06:48:43.489Z,98414.47
2018-12-19T06:51:11.971Z,98408.24
2018-12-19T06:53:40.630Z,98411.12
2018-12-19T06:56:09.111Z,98403.83
2018-12-19T06:58:37.547Z,98412.90
2018-12-19T07:08:00.939Z,98422.84
2018-12-19T07:10:29.535Z,98427.66
2018-12-19T07:12:58.027Z,98436.67
2018-12-19T07:15:26.563Z,98440.15
2018-12-19T07:17:55.127Z,98448.74
2018-12-19T07:20:23.764Z,98449.43
2018-12-19T07:22:52.211Z,98443.39
2018-12-19T07:25:20.747Z,98441.47
2018-12-19T07:27:49.192Z,98436.34
2018-12-19T07:30:17.839Z,98437.34
2018-12-19T07:32:46.287Z,98437.97
2018-12-19T07:35:14.837Z,98438.97
2018-12-19T07:37:43.431Z,98438.55
2018-12-19T07:40:11.884Z,98442.84
2018-12-19T07:42:40.333Z,98446.31
2018-12-19T07:45:08.809Z,98437.23
2018-12-19T07:47:37.263Z,98435.40
2018-12-19T07:52:58.769Z,98438.13
2018-12-19T07:55:29.342Z,98446.36
2018-12-19T07:57:57.833Z,98454.64
2018-12-19T08:00:27.562Z,98464.36
2018-12-19T08:02:56.271Z,98457.95
2018-12-19T08:05:26.324Z,98461.83
2018-12-19T08:07:55.086Z,98454.92
2018-12-19T08:10:23.608Z,98459.05
2018-12-19T08:12:52.028Z,98461.94
2018-12-19T08:15:20.543Z,98465.12
2018-12-19T08:17:48.975Z,98464.55
2018-12-19T08:20:17.440Z,98464.02
2018-12-19T08:22:45.876Z,98466.46
2018-12-19T08:25:14.339Z,98467.67
2018-12-19T08:27:42.871Z,98478.53
2018-12-19T08:30:11.467Z,98476.59
2018-12-19T08:32:39.916Z,98485.13
2018-12-19T08:35:08.459Z,98486.39
2018-12-19T08:37:36.906Z,98489.27
2018-12-19T08:40:06.244Z,98487.75
2018-12-19T08:42:34.688Z,98486.65
2018-12-19T08:45:03.127Z,98491.00
2018-12-19T08:47:31.943Z,98496.24
2018-12-19T08:50:00.360Z,98490.70
2018-12-19T08:52:28.803Z,98491.58
2018-12-19T08:54:57.220Z,98482.31
2018-12-19T08:57:25.667Z,98480.39
2018-12-19T08:59:54.072Z,98485.45
2018-12-19T09:02:22.619Z,98488.45
2018-12-19T09:04:51.045Z,98484.17
2018-12-19T09:10:14.000Z,98497.95
2018-12-19T09:12:42.495Z,98503.62
2018-12-19T09:15:10.959Z,98497.59
2018-12-19T09:17:39.412Z,98492.92
2018-12-19T09:20:08.519Z,98507.94
2018-12-19T09:22:37.134Z,98495.96
2018-12-19T09:25:05.824Z,98493.25
2018-12-19T09:27:34.280Z,98506.82
2018-12-19T09:30:02.747Z,98509.03
2018-12-19T09:32:31.233Z,98519.95
2018-12-19T09:34:59.671Z,98516.27
2018-12-19T09:37:28.180Z,98510.23
2018-12-19T09:39:56.604Z,98516.89
2018-12-19T09:42:25.068Z,98514.22
2018-12-19T09:44:53.514Z,98496.89
2018-12-19T09:47:21.980Z,98501.44
2018-12-19T09:49:50.420Z,98505.24
2018-12-19T09:52:18.905Z,98503.72
2018-12-19T09:54:47.384Z,98506.02
2018-12-19T09:57:15.852Z,98497.69
2018-12-19T09:59:44.268Z,98490.92
2018-12-19T10:02:13.257Z,98484.17
2018-12-19T10:04:41.679Z,98477.37
2018-12-19T10:07:10.142Z,98468.61
2018-12-19T10:09:38.741Z,98464.73
2018-12-19T10:12:07.328Z,98475.64
2018-12-19T10:14:35.776Z,98476.23
2018-12-19T10:17:04.426Z,98483.71
2018-12-19T10:19:32.931Z,98482.18
2018-12-19T10:22:01.437Z,98477.57
2018-12-19T10:24:35.067Z,98482.82
2018-12-19T10:27:03.719Z,98488.14
2018-12-19T10:29:32.207Z,98476.58
2018-12-19T10:32:00.813Z,98474.91
2018-12-19T10:34:29.253Z,98477.48
2018-12-19T10:36:59.160Z,98476.09
2018-12-19T10:39:27.904Z,98473.40
2018-12-19T10:41:56.352Z,98477.02
2018-12-19T10:44:24.790Z,98467.52
2018-12-19T10:46:53.251Z,98474.83
2018-12-19T10:49:21.676Z,98463.89
2018-12-19T10:51:50.129Z,98458.09
2018-12-19T10:54:18.569Z,98466.75
2018-12-19T10:56:47.003Z,98462.66
2018-12-19T10:59:15.480Z,98460.48
2018-12-19T11:01:43.916Z,98458.64
2018-12-19T11:04:12.377Z,98454.09
2018-12-19T11:06:40.801Z,98445.39
2018-12-19T11:09:09.396Z,98447.54
2018-12-19T11:11:37.841Z,98452.63
2018-12-19T11:14:06.345Z,98460.81
2018-12-19T11:16:34.779Z,98459.51
2018-12-19T11:19:03.259Z,98457.25
2018-12-19T11:21:31.708Z,98446.31
2018-12-19T11:24:00.299Z,98438.97
2018-12-19T11:26:28.867Z,98437.93
2018-12-19T11:28:57.327Z,98439.75
2018-12-19T11:31:26.253Z,98437.92
2018-12-19T11:33:54.724Z,98417.09
2018-12-19T11:36:23.180Z,98412.49
2018-12-19T11:38:51.648Z,98411.73
2018-12-19T11:41:20.093Z,98412.20
2018-12-19T11:43:48.549Z,98403.94
2018-12-19T11:46:17.000Z,98401.31
2018-12-19T11:48:45.468Z,98404.61
2018-12-19T11:51:14.039Z,98394.04
2018-12-19T11:53:42.539Z,98389.62
2018-12-19T11:56:10.980Z,98395.98
2018-12-19T11:58:39.454Z,98391.41
2018-12-19T12:01:07.911Z,98393.20
2018-12-19T12:03:36.423Z,98396.98
2018-12-19T12:06:04.914Z,98390.97
2018-12-19T12:08:33.384Z,98382.45
2018-12-19T12:11:01.829Z,98367.38
2018-12-19T12:13:30.290Z,98364.52
2018-12-19T12:15:58.766Z,98361.16
2018-12-19T12:18:27.229Z,98357.25
2018-12-19T12:20:55.675Z,98356.15
2018-12-19T12:23:24.147Z,98350.25
2018-12-19T12:25:52.732Z,98356.63
2018-12-19T12:28:21.192Z,98351.23
2018-12-19T12:30:49.637Z,98353.05
2018-12-19T12:33:18.100Z,98366.68
2018-12-19T12:35:46.659Z,98370.59
2018-12-19T12:38:15.119Z,98375.16
2018-12-19T12:40:43.559Z,98380.90
2018-12-19T12:43:12.041Z,98379.56
2018-12-19T12:45:40.491Z,98367.05
2018-12-19T12:48:08.971Z,98369.36
2018-12-19T12:50:37.412Z,98382.81
2018-12-19T12:53:05.889Z,98386.41
2018-12-19T12:55:34.340Z,98374.88
2018-12-19T12:58:02.788Z,98367.49
2018-12-19T13:00:31.251Z,98367.66
2018-12-19T13:02:59.725Z,98363.53
2018-12-19T13:05:28.168Z,98349.88
2018-12-19T13:07:56.639Z,98338.24
2018-12-19T13:10:26.689Z,98334.53
2018-12-19T13:12:55.272Z,98335.03
2018-12-19T13:15:29.047Z,98340.30
2018-12-19T13:17:57.932Z,98333.29
2018-12-19T13:20:26.460Z,98323.77
2018-12-19T13:22:54.927Z,98319.36
2018-12-19T13:25:23.386Z,98308.19
2018-12-19T13:27:52.138Z,98299.33
2018-12-19T13:30:20.576Z,98293.91
2018-12-19T13:32:49.011Z,98289.16
2018-12-19T13:35:17.492Z,98294.39
2018-12-19T13:37:45.932Z,98300.46
2018-12-19T13:40:14.386Z,98298.83
2018-12-19T13:42:42.822Z,98301.94
2018-12-19T13:45:11.300Z,98297.33
2018-12-19T13:47:39.720Z,98294.22
2018-12-19T13:50:08.777Z,98293.08
2018-12-19T13:52:37.199Z,98288.45
2018-12-19T13:55:06.163Z,98303.23
2018-12-19T13:57:34.699Z,98296.16
2018-12-19T14:00:03.669Z,98289.77
2018-12-19T14:02:32.087Z,98285.17
2018-12-19T14:05:00.540Z,98287.33
2018-12-19T14:07:28.963Z,98294.89
2018-12-19T14:09:57.444Z,98288.98
2018-12-19T14:12:25.890Z,98287.03
2018-12-19T14:14:54.375Z,98289.66
2018-12-19T14:17:22.819Z,98298.18
2018-12-19T14:19:51.272Z,98290.98
2018-12-19T14:22:19.713Z,98282.58
2018-12-19T14:24:48.188Z,98297.20
2018-12-19T14:27:16.636Z,98297.03
2018-12-19T14:29:45.095Z,98298.52
2018-12-19T14:32:13.551Z,98290.45
2018-12-19T14:34:42.025Z,98283.72
2018-12-19T14:37:10.455Z,98289.16
2018-12-19T14:39:38.914Z,98280.63
2018-12-19T14:44:42.195Z,98297.86
2018-12-19T14:47:11.467Z,98293.91
2018-12-19T14:49:39.939Z,98285.69
2018-12-19T14:52:13.844Z,98285.86
2018-12-19T14:54:42.311Z,98269.77
2018-12-19T14:57:10.743Z,98273.38
2018-12-19T14:59:39.200Z,98272.05
2018-12-19T15:02:07.653Z,98261.55
2018-12-19T15:04:36.134Z,98259.89
2018-12-19T15:07:04.709Z,98249.04
2018-12-19T15:09:33.161Z,98245.75
2018-12-19T15:12:01.744Z,98240.52
2018-12-19T15:14:30.348Z,98246.75
2018-12-19T15:16:58.940Z,98241.83
2018-12-19T15:19:27.410Z,98243.94
2018-12-19T15:21:55.830Z,98232.63
2018-12-19T15:27:17.543Z,98224.76
2018-12-19T15:29:45.983Z,98232.29
2018-12-19T15:32:14.399Z,98234.25
2018-12-19T15:37:49.071Z,98244.12
2018-12-19T15:46:02.880Z,98247.69
2018-12-19T15:51:24.227Z,98262.42
2018-12-19T15:53:52.752Z,98262.42
2018-12-19T15:56:21.184Z,98263.72
2018-12-19T15:58:49.644Z,98244.69
2018-12-19T16:01:18.064Z,98229.40
2018-12-19T16:03:46.487Z,98237.48
2018-12-19T16:09:08.099Z,98229.61
2018-12-19T16:11:36.542Z,98228.14
2018-12-19T16:14:05.191Z,98226.02
2018-12-19T16:16:33.615Z,98226.16
2018-12-19T16:19:02.083Z,98220.91
2018-12-19T16:21:30.532Z,98213.72
2018-12-19T16:23:59.033Z,98211.73
2018-12-19T16:26:27.524Z,98209.11
2018-12-19T16:28:56.027Z,98207.11
2018-12-19T16:31:25.213Z,98207.28
2018-12-19T16:36:46.270Z,98194.98
2018-12-19T16:39:14.759Z,98194.16
2018-12-19T16:41:43.209Z,98195.84
2018-12-19T16:44:11.673Z,98187.63
2018-12-19T16:46:40.076Z,98182.22
2018-12-19T16:49:08.569Z,98184.84
2018-12-19T16:51:37.310Z,98188.63
2018-12-19T16:54:05.828Z,98199.62
2018-12-19T16:56:34.432Z,98199.78
2018-12-19T16:59:02.864Z,98213.73
2018-12-19T17:01:31.368Z,98212.59
2018-12-19T17:03:59.946Z,98199.95
2018-12-19T17:06:28.408Z,98199.48
2018-12-19T17:14:42.417Z,98190.77
2018-12-19T17:28:48.979Z,98186.33
2018-12-19T17:31:17.447Z,98187.32
2018-12-19T17:33:45.890Z,98189.61
2018-12-19T17:39:07.131Z,98196.67
2018-12-19T17:47:20.579Z,98191.59
2018-12-19T17:52:41.747Z,98189.47
2018-12-19T17:55:10.235Z,98194.23
2018-12-19T18:00:31.764Z,98193.41
2018-12-19T18:03:00.186Z,98191.59
2018-12-19T18:05:28.655Z,98190.15
2018-12-19T18:10:49.079Z,98187.51
2018-12-19T18:16:13.210Z,98174.05
2018-12-19T18:18:41.639Z,98188.48
2018-12-19T18:26:55.746Z,98205.23
2018-12-19T18:29:24.313Z,98204.09
2018-12-19T18:31:52.775Z,98206.89
2018-12-19T18:34:22.885Z,98202.79
2018-12-19T18:36:51.365Z,98204.74
2018-12-19T18:39:25.919Z,98210.51
2018-12-19T18:41:50.338Z,98209.83
2018-12-19T18:47:10.734Z,98203.61
2018-12-19T18:58:17.032Z,98173.07
2018-12-19T19:06:46.599Z,98176.83
2018-12-19T19:29:22.843Z,98139.24
2018-12-19T19:43:31.292Z,98118.40
2018-12-19T20:00:28.200Z,98113.46
2018-12-19T20:02:56.623Z,98111.66
2018-12-19T20:11:32.183Z,98127.27
2018-12-19T20:45:38.699Z,98154.51
2018-12-19T20:48:07.159Z,98154.02
2018-12-19T20:50:40.483Z,98154.00
2018-12-19T21:02:39.762Z,98169.45
2018-12-19T21:05:08.295Z,98157.95
2018-12-19T21:10:30.132Z,98143.98
2018-12-19T21:12:58.595Z,98141.67
2018-12-19T21:15:27.058Z,98142.98
2018-12-19T21:20:48.571Z,98140.04
2018-12-19T21:23:17.039Z,98145.44
2018-12-19T21:25:45.461Z,98143.30
2018-12-19T21:28:13.906Z,98147.23
2018-12-19T21:33:40.934Z,98175.19
2018-12-19T21:39:02.181Z,98176.33
2018-12-19T21:41:30.756Z,98176.67
2018-12-19T21:43:59.318Z,98176.34
2018-12-19T21:46:27.796Z,98186.03
2018-12-19T21:48:56.334Z,98186.01
2018-12-19T21:51:24.798Z,98185.83
2018-12-19T21:53:53.235Z,98186.66
2018-12-19T21:56:21.701Z,98181.06
2018-12-19T21:58:50.136Z,98175.98
2018-12-19T22:01:18.774Z,98168.41
2018-12-19T22:03:47.192Z,98170.38
2018-12-19T22:06:16.035Z,98169.72
2018-12-19T22:08:44.591Z,98172.52
2018-12-19T22:11:13.227Z,98172.52
2018-12-19T22:13:41.769Z,98168.92
2018-12-19T22:16:14.431Z,98156.92
2018-12-19T22:24:28.572Z,98153.80
2018-12-19T22:29:49.768Z,98145.44
2018-12-19T22:32:18.590Z,98133.92
2018-12-19T22:34:47.043Z,98134.09
2018-12-19T22:37:15.638Z,98138.69
2018-12-19T22:39:44.140Z,98143.95
2018-12-19T22:45:05.181Z,98141.18
2018-12-19T22:47:33.675Z,98141.20
2018-12-19T22:52:56.714Z,98152.87
2018-12-19T22:58:17.782Z,98156.95
2018-12-19T23:12:16.907Z,98149.44
2018-12-19T23:18:27.410Z,98150.56
2018-12-19T23:20:56.358Z,98153.67
2018-12-19T23:23:25.024Z,98151.22
2018-12-19T23:25:53.570Z,98157.14
2018-12-19T23:28:22.134Z,98156.32
2018-12-19T23:30:50.694Z,98159.44
2018-12-19T23:33:19.208Z,98155.34
2018-12-19T23:35:47.748Z,98151.88
2018-12-19T23:38:16.218Z,98145.12
2018-12-19T23:40:44.720Z,98147.44
2018-12-19T23:43:13.587Z,98151.69
2018-12-19T23:45:42.192Z,98148.41
2018-12-19T23:48:10.813Z,98146.77
2018-12-19T23:50:39.401Z,98160.25
2018-12-19T23:53:07.984Z,98155.99
2018-12-19T23:55:36.436Z,98152.54
2018-12-19T23:58:05.037Z,98152.71
